createdAt,value
2023-10-15T00:00:39.048Z,45.33
2023-10-15T00:03:08.574Z,45.03
2023-10-15T00:05:44.688Z,45.42
2023-10-15T00:08:12.170Z,45.55
2023-10-15T00:10:42.939Z,45.42
2023-10-15T00:13:12.130Z,45.54
2023-10-15T00:15:41.078Z,45.27
2023-10-15T00:18:09.027Z,45.40
2023-10-15T00:20:37.148Z,45.30
2023-10-15T00:23:06.315Z,45.31
2023-10-15T00:25:48.993Z,45.66
2023-10-15T00:28:17.148Z,45.18
2023-10-15T00:30:52.996Z,45.53
2023-10-15T00:33:26.533Z,45.23
2023-10-15T00:35:56.829Z,45.23
2023-10-15T00:38:25.896Z,45.39
2023-10-15T00:41:02.651Z,45.19
2023-10-15T00:43:34.865Z,45.47
2023-10-15T00:46:14.725Z,45.29
2023-10-15T00:48:46.716Z,45.58
2023-10-15T00:51:15.173Z,45.29
2023-10-15T00:53:55.048Z,45.39
2023-10-15T00:56:37.097Z,45.30
2023-10-15T00:59:07.171Z,45.31
2023-10-15T01:01:43.758Z,45.17
2023-10-15T01:04:16.915Z,45.36
2023-10-15T01:06:50.961Z,45.08
2023-10-15T01:09:21.864Z,45.30
2023-10-15T01:11:58.665Z,45.34
2023-10-15T01:14:34.257Z,45.26
2023-10-15T01:17:02.387Z,44.96
2023-10-15T01:19:37.384Z,45.02
2023-10-15T01:22:19.591Z,44.70
2023-10-15T01:24:55.185Z,44.56
2023-10-15T01:27:31.956Z,44.74
2023-10-15T01:30:05.317Z,44.45
2023-10-15T01:32:39.748Z,44.67
2023-10-15T01:35:12.183Z,44.61
2023-10-15T01:37:47.367Z,44.50
2023-10-15T01:40:38.240Z,44.52
2023-10-15T01:43:13.969Z,44.38
2023-10-15T01:45:48.695Z,44.24
2023-10-15T01:48:31.886Z,44.37
2023-10-15T01:51:10.985Z,44.47
2023-10-15T01:53:46.503Z,44.35
2023-10-15T01:56:21.384Z,44.32
2023-10-15T01:58:49.404Z,44.46
2023-10-15T02:01:33.240Z,44.28
2023-10-15T02:04:03.297Z,44.65
2023-10-15T02:06:36.765Z,44.50
2023-10-15T02:09:11.966Z,44.88
2023-10-15T02:11:48.675Z,44.73
2023-10-15T02:14:22.754Z,44.66
2023-10-15T02:16:55.055Z,45.10
2023-10-15T02:19:51.881Z,45.11
2023-10-15T02:22:22.571Z,45.35
2023-10-15T02:24:57.416Z,45.27
2023-10-15T02:27:31.630Z,44.98
2023-10-15T02:29:58.938Z,45.51
2023-10-15T02:32:28.881Z,45.29
2023-10-15T02:35:07.280Z,45.50
2023-10-15T02:37:34.625Z,45.37
2023-10-15T02:40:17.407Z,45.47
2023-10-15T02:42:54.878Z,45.16
2023-10-15T02:45:36.707Z,45.60
2023-10-15T02:48:20.992Z,45.34
2023-10-15T02:51:01.738Z,45.26
2023-10-15T02:53:35.285Z,45.34
2023-10-15T02:56:12.338Z,45.33
2023-10-15T02:58:44.423Z,45.12
2023-10-15T03:01:20.858Z,45.59
2023-10-15T03:03:57.550Z,45.22
2023-10-15T03:06:37.390Z,45.16
2023-10-15T03:09:12.618Z,45.18
2023-10-15T03:11:51.443Z,45.28
2023-10-15T03:14:26.434Z,45.25
2023-10-15T03:16:58.362Z,45.64
2023-10-15T03:19:25.872Z,45.56
2023-10-15T03:22:00.490Z,45.36
2023-10-15T03:24:33.367Z,45.15
2023-10-15T03:27:05.646Z,45.12
2023-10-15T03:29:34.121Z,45.34
2023-10-15T03:32:11.060Z,45.60
2023-10-15T03:34:49.099Z,45.37
2023-10-15T03:37:23.672Z,45.56
2023-10-15T03:39:57.209Z,45.40
2023-10-15T03:42:30.057Z,45.43
2023-10-15T03:45:00.953Z,45.69
2023-10-15T03:47:33.539Z,45.75
2023-10-15T03:50:07.676Z,45.66
2023-10-15T03:52:38.657Z,45.72
2023-10-15T03:55:06.834Z,45.67
2023-10-15T03:57:38.828Z,45.29
2023-10-15T04:00:29.718Z,45.47
2023-10-15T04:03:08.242Z,45.48
2023-10-15T04:05:38.565Z,45.29
2023-10-15T04:08:20.495Z,45.53
2023-10-15T04:10:58.372Z,45.76
2023-10-15T04:13:29.199Z,45.60
2023-10-15T04:16:02.064Z,45.30
2023-10-15T04:18:31.564Z,45.58
2023-10-15T04:21:00.185Z,45.66
2023-10-15T04:23:32.857Z,45.50
2023-10-15T04:26:08.857Z,45.47
2023-10-15T04:28:44.630Z,45.49
2023-10-15T04:31:23.693Z,45.75
2023-10-15T04:33:54.464Z,45.26
2023-10-15T04:36:24.368Z,45.27
2023-10-15T04:39:09.698Z,45.49
2023-10-15T04:41:37.221Z,45.48
2023-10-15T04:44:05.824Z,45.60
2023-10-15T04:46:42.809Z,45.55
2023-10-15T04:49:16.407Z,45.21
2023-10-15T04:51:49.019Z,45.41
2023-10-15T04:54:18.718Z,45.59
2023-10-15T04:56:51.097Z,45.62
2023-10-15T04:59:27.506Z,45.37
2023-10-15T05:01:54.858Z,45.48
2023-10-15T05:04:24.329Z,45.46
2023-10-15T05:07:00.467Z,45.30
2023-10-15T05:09:35.101Z,45.12
2023-10-15T05:12:08.176Z,45.50
2023-10-15T05:14:41.340Z,45.41
2023-10-15T05:17:08.788Z,45.22
2023-10-15T05:19:38.158Z,45.40
2023-10-15T05:22:07.824Z,45.50
2023-10-15T05:24:42.619Z,45.46
2023-10-15T05:27:13.919Z,45.11
2023-10-15T05:29:43.568Z,45.26
2023-10-15T05:32:16.244Z,45.42
2023-10-15T05:34:46.188Z,45.51
2023-10-15T05:37:17.374Z,45.16
2023-10-15T05:39:47.154Z,45.07
2023-10-15T05:42:17.113Z,45.07
2023-10-15T05:44:46.732Z,45.18
2023-10-15T05:47:14.182Z,45.02
2023-10-15T05:49:41.563Z,45.33
2023-10-15T05:52:09.863Z,45.05
2023-10-15T05:54:37.729Z,45.02
2023-10-15T05:57:07.638Z,45.10
2023-10-15T05:59:38.293Z,45.48
2023-10-15T06:02:05.870Z,45.15
2023-10-15T06:04:39.884Z,45.10
2023-10-15T06:07:09.669Z,45.00
2023-10-15T06:09:45.649Z,45.42
2023-10-15T06:12:18.865Z,45.12
2023-10-15T06:14:46.449Z,45.42
2023-10-15T06:17:13.763Z,45.35
2023-10-15T06:19:46.100Z,44.95
2023-10-15T06:22:16.547Z,45.12
2023-10-15T06:24:48.009Z,44.93
2023-10-15T06:27:19.337Z,45.26
2023-10-15T06:29:52.680Z,45.02
2023-10-15T06:32:19.936Z,44.91
2023-10-15T06:34:49.728Z,44.86
2023-10-15T06:37:19.704Z,45.06
2023-10-15T06:39:49.851Z,45.14
2023-10-15T06:42:17.441Z,45.14
2023-10-15T06:44:52.622Z,45.07
2023-10-15T06:47:20.255Z,45.17
2023-10-15T06:49:47.674Z,45.06
2023-10-15T06:52:22.814Z,45.13
2023-10-15T06:54:56.172Z,44.63
2023-10-15T06:57:27.009Z,45.18
2023-10-15T06:59:57.703Z,44.69
2023-10-15T07:02:30.076Z,45.27
2023-10-15T07:05:03.520Z,44.92
2023-10-15T07:07:32.112Z,45.13
2023-10-15T07:10:05.810Z,45.11
2023-10-15T07:12:34.038Z,45.16
2023-10-15T07:15:03.808Z,44.94
2023-10-15T07:17:33.926Z,44.88
2023-10-15T07:20:04.833Z,44.93
2023-10-15T07:22:35.093Z,45.10
2023-10-15T07:25:09.915Z,44.78
2023-10-15T07:27:43.042Z,45.06
2023-10-15T07:30:13.742Z,44.78
2023-10-15T07:32:42.224Z,44.87
2023-10-15T07:35:13.811Z,44.83
2023-10-15T07:37:51.289Z,44.85
2023-10-15T07:40:23.858Z,44.61
2023-10-15T07:42:54.595Z,44.96
2023-10-15T07:45:35.471Z,45.18
2023-10-15T07:48:05.232Z,45.10
2023-10-15T07:50:36.288Z,45.15
2023-10-15T07:53:07.307Z,44.97
2023-10-15T07:55:37.786Z,45.00
2023-10-15T07:58:11.000Z,45.20
2023-10-15T08:00:44.029Z,44.60
2023-10-15T08:03:20.579Z,44.65
2023-10-15T08:05:49.799Z,45.18
2023-10-15T08:08:17.974Z,44.85
2023-10-15T08:10:45.391Z,44.38
2023-10-15T08:13:14.068Z,44.44
2023-10-15T08:15:43.828Z,44.66
2023-10-15T08:18:19.099Z,44.14
2023-10-15T08:20:47.214Z,44.43
2023-10-15T08:23:20.218Z,44.50
2023-10-15T08:25:50.833Z,44.38
2023-10-15T08:28:22.919Z,44.23
2023-10-15T08:30:55.841Z,43.78
2023-10-15T08:33:26.218Z,43.79
2023-10-15T08:35:53.579Z,44.12
2023-10-15T08:38:24.184Z,43.95
2023-10-15T08:40:55.986Z,44.09
2023-10-15T08:43:30.552Z,43.94
2023-10-15T08:46:01.868Z,43.77
2023-10-15T08:48:32.902Z,44.16
2023-10-15T08:51:03.295Z,44.18
2023-10-15T08:53:37.593Z,43.99
2023-10-15T08:56:08.704Z,44.22
2023-10-15T08:58:42.917Z,44.09
2023-10-15T09:01:15.128Z,44.37
2023-10-15T09:03:45.186Z,44.38
2023-10-15T09:06:17.047Z,44.11
2023-10-15T09:08:51.938Z,44.22
2023-10-15T09:11:22.906Z,44.30
2023-10-15T09:13:55.960Z,44.28
2023-10-15T09:16:25.636Z,44.32
2023-10-15T09:18:56.519Z,44.25
2023-10-15T09:21:26.897Z,44.29
2023-10-15T09:23:56.410Z,44.14
2023-10-15T09:26:23.887Z,44.11
2023-10-15T09:28:53.496Z,44.30
2023-10-15T09:31:21.950Z,44.48
2023-10-15T09:33:52.460Z,44.76
2023-10-15T09:36:27.428Z,44.87
2023-10-15T09:38:55.769Z,44.57
2023-10-15T09:41:27.090Z,44.55
2023-10-15T09:44:00.221Z,44.72
2023-10-15T09:46:34.508Z,44.30
2023-10-15T09:49:05.405Z,44.57
2023-10-15T09:51:34.118Z,44.68
2023-10-15T09:54:04.913Z,44.44
2023-10-15T09:56:35.968Z,44.57
2023-10-15T09:59:11.670Z,44.57
2023-10-15T10:01:46.060Z,44.70
2023-10-15T10:04:24.817Z,44.50
2023-10-15T10:07:13.746Z,44.69
2023-10-15T10:09:55.803Z,44.29
2023-10-15T10:12:33.294Z,44.33
2023-10-15T10:15:30.487Z,44.34
2023-10-15T10:17:58.300Z,44.21
2023-10-15T10:20:33.339Z,44.42
2023-10-15T10:23:04.305Z,44.33
2023-10-15T10:25:38.404Z,44.49
2023-10-15T10:28:17.298Z,44.46
2023-10-15T10:31:20.277Z,44.25
2023-10-15T10:33:54.907Z,44.52
2023-10-15T10:36:29.412Z,44.02
2023-10-15T10:39:19.342Z,44.51
2023-10-15T10:41:55.587Z,44.34
2023-10-15T10:44:31.749Z,44.33
2023-10-15T10:47:16.644Z,44.45
2023-10-15T10:49:57.071Z,44.84
2023-10-15T10:52:31.479Z,44.75
2023-10-15T10:55:32.024Z,44.89
2023-10-15T10:58:04.489Z,44.49
2023-10-15T11:00:34.531Z,44.51
2023-10-15T11:03:08.355Z,44.69
2023-10-15T11:05:44.857Z,44.62
2023-10-15T11:08:20.074Z,44.59
2023-10-15T11:10:52.036Z,44.85
2023-10-15T11:13:21.798Z,44.88
2023-10-15T11:15:53.217Z,45.01
2023-10-15T11:18:32.113Z,44.56
2023-10-15T11:21:04.861Z,44.52
2023-10-15T11:23:34.897Z,44.89
2023-10-15T11:26:09.798Z,44.87
2023-10-15T11:28:42.100Z,44.53
2023-10-15T11:31:11.729Z,44.83
2023-10-15T11:33:41.536Z,44.72
2023-10-15T11:36:12.420Z,44.51
2023-10-15T11:38:44.319Z,44.71
2023-10-15T11:41:13.618Z,44.85
2023-10-15T11:43:52.767Z,44.61
2023-10-15T11:46:24.615Z,44.85
2023-10-15T11:48:55.348Z,45.07
2023-10-15T11:51:26.152Z,44.65
2023-10-15T11:53:53.445Z,44.58
2023-10-15T11:56:21.590Z,44.82
2023-10-15T11:58:49.524Z,44.53
2023-10-15T12:01:19.464Z,44.63
2023-10-15T12:03:52.156Z,44.54
2023-10-15T12:06:26.110Z,45.09
2023-10-15T12:09:01.337Z,44.95
2023-10-15T12:11:28.750Z,44.36
2023-10-15T12:13:58.600Z,44.54
2023-10-15T12:16:28.025Z,44.35
2023-10-15T12:18:55.289Z,44.62
2023-10-15T12:21:25.326Z,44.62
2023-10-15T12:23:59.370Z,44.53
2023-10-15T12:26:27.210Z,44.45
2023-10-15T12:28:55.538Z,44.44
2023-10-15T12:31:28.602Z,44.74
2023-10-15T12:33:57.311Z,44.65
2023-10-15T12:36:27.202Z,44.51
2023-10-15T12:39:00.508Z,44.54
2023-10-15T12:41:31.890Z,44.43
2023-10-15T12:44:10.803Z,44.79
2023-10-15T12:46:39.393Z,44.78
2023-10-15T12:49:11.987Z,44.53
2023-10-15T12:51:42.331Z,44.17
2023-10-15T12:54:14.948Z,44.36
2023-10-15T12:56:44.946Z,44.11
2023-10-15T12:59:12.990Z,44.35
2023-10-15T13:01:45.683Z,44.14
2023-10-15T13:04:14.260Z,43.94
2023-10-15T13:06:48.062Z,44.30
2023-10-15T13:09:21.154Z,43.79
2023-10-15T13:11:53.225Z,43.92
2023-10-15T13:14:23.013Z,44.04
2023-10-15T13:16:56.248Z,43.74
2023-10-15T13:19:23.594Z,43.92
2023-10-15T13:21:52.255Z,44.14
2023-10-15T13:24:20.196Z,43.79
2023-10-15T13:26:48.248Z,43.62
2023-10-15T13:29:17.994Z,43.62
2023-10-15T13:31:47.605Z,43.56
2023-10-15T13:34:22.948Z,43.96
2023-10-15T13:36:53.382Z,43.96
2023-10-15T13:39:29.698Z,43.62
2023-10-15T13:42:00.932Z,43.73
2023-10-15T13:44:28.361Z,43.95
2023-10-15T13:46:56.020Z,43.65
2023-10-15T13:49:29.082Z,43.70
2023-10-15T13:51:58.833Z,43.85
2023-10-15T13:54:30.051Z,43.52
2023-10-15T13:57:02.800Z,43.48
2023-10-15T13:59:30.172Z,43.63
2023-10-15T14:02:00.747Z,43.36
2023-10-15T14:04:32.349Z,43.83
2023-10-15T14:07:02.503Z,43.43
2023-10-15T14:09:35.602Z,43.35
2023-10-15T14:12:06.286Z,43.75
2023-10-15T14:14:34.892Z,43.31
2023-10-15T14:17:05.423Z,43.28
2023-10-15T14:19:33.004Z,43.61
2023-10-15T14:22:02.642Z,43.24
2023-10-15T14:24:30.193Z,43.49
2023-10-15T14:27:02.294Z,43.47
2023-10-15T14:29:36.888Z,43.53
2023-10-15T14:32:04.403Z,43.34
2023-10-15T14:34:34.884Z,43.52
2023-10-15T14:37:02.380Z,43.24
2023-10-15T14:39:33.108Z,43.24
2023-10-15T14:42:06.277Z,43.41
2023-10-15T14:44:36.305Z,43.40
2023-10-15T14:47:09.579Z,43.23
2023-10-15T14:49:38.170Z,43.34
2023-10-15T14:52:10.192Z,43.13
2023-10-15T14:54:37.660Z,43.07
2023-10-15T14:57:14.286Z,43.53
2023-10-15T14:59:44.414Z,43.12
2023-10-15T15:02:11.828Z,43.31
2023-10-15T15:04:42.022Z,43.31
2023-10-15T15:07:09.436Z,43.34
2023-10-15T15:09:41.644Z,43.24
2023-10-15T15:12:11.822Z,43.43
2023-10-15T15:14:41.597Z,43.47
2023-10-15T15:17:15.878Z,43.25
2023-10-15T15:19:48.690Z,42.99
2023-10-15T15:22:16.251Z,43.36
2023-10-15T15:24:43.722Z,43.16
2023-10-15T15:27:13.478Z,42.85
2023-10-15T15:29:46.361Z,42.79
2023-10-15T15:32:16.570Z,42.76
2023-10-15T15:34:47.082Z,42.25
2023-10-15T15:37:20.402Z,42.87
2023-10-15T15:39:48.333Z,42.82
2023-10-15T15:42:16.506Z,42.98
2023-10-15T15:44:48.320Z,43.12
2023-10-15T15:47:18.270Z,43.04
2023-10-15T15:49:48.238Z,42.94
2023-10-15T15:52:15.669Z,42.70
2023-10-15T15:54:47.635Z,42.51
2023-10-15T15:57:19.794Z,42.50
2023-10-15T15:59:48.931Z,42.66
2023-10-15T16:02:19.408Z,42.59
2023-10-15T16:04:47.767Z,42.75
2023-10-15T16:07:15.323Z,42.80
2023-10-15T16:09:45.799Z,42.59
2023-10-15T16:12:16.138Z,42.63
2023-10-15T16:14:43.495Z,42.66
2023-10-15T16:17:17.091Z,42.16
2023-10-15T16:19:45.420Z,42.41
2023-10-15T16:22:15.517Z,42.18
2023-10-15T16:25:00.484Z,42.07
2023-10-15T16:27:34.941Z,42.27
2023-10-15T16:30:03.473Z,41.72
2023-10-15T16:32:33.918Z,42.36
2023-10-15T16:35:07.233Z,42.38
2023-10-15T16:37:35.890Z,41.59
2023-10-15T16:40:10.061Z,41.74
2023-10-15T16:42:40.368Z,41.58
2023-10-15T16:45:11.142Z,41.83
2023-10-15T16:47:39.438Z,42.14
2023-10-15T16:50:10.967Z,41.96
2023-10-15T16:52:44.200Z,41.87
2023-10-15T16:55:21.944Z,41.70
2023-10-15T16:57:51.599Z,41.91
2023-10-15T17:00:19.489Z,41.58
2023-10-15T17:02:53.075Z,41.59
2023-10-15T17:05:23.261Z,41.36
2023-10-15T17:07:55.882Z,41.33
2023-10-15T17:10:26.408Z,41.36
2023-10-15T17:12:58.763Z,41.32
2023-10-15T17:15:28.446Z,41.31
2023-10-15T17:17:58.723Z,41.43
2023-10-15T17:20:28.837Z,41.32
2023-10-15T17:23:00.251Z,41.22
2023-10-15T17:25:32.095Z,41.25
2023-10-15T17:28:05.034Z,40.78
2023-10-15T17:30:36.953Z,40.82
2023-10-15T17:33:12.893Z,41.02
2023-10-15T17:35:47.775Z,40.93
2023-10-15T17:38:19.321Z,41.18
2023-10-15T17:40:46.905Z,40.69
2023-10-15T17:43:16.639Z,40.91
2023-10-15T17:45:51.653Z,40.83
2023-10-15T17:48:22.179Z,40.64
2023-10-15T17:50:57.376Z,40.43
2023-10-15T17:53:29.345Z,40.79
2023-10-15T17:55:59.321Z,40.80
2023-10-15T17:58:31.360Z,40.35
2023-10-15T18:01:01.768Z,40.35
2023-10-15T18:03:32.258Z,40.39
2023-10-15T18:06:04.501Z,40.22
2023-10-15T18:08:37.579Z,40.08
2023-10-15T18:11:07.650Z,39.98
2023-10-15T18:13:38.867Z,40.05
2023-10-15T18:16:06.576Z,39.95
2023-10-15T18:18:36.400Z,40.31
2023-10-15T18:21:08.861Z,39.94
2023-10-15T18:23:38.826Z,40.00
2023-10-15T18:26:11.214Z,40.15
2023-10-15T18:28:43.022Z,40.42
2023-10-15T18:31:13.017Z,39.93
2023-10-15T18:33:46.300Z,40.18
2023-10-15T18:36:14.680Z,39.75
2023-10-15T18:38:42.050Z,39.76
2023-10-15T18:41:12.621Z,39.74
2023-10-15T18:43:45.730Z,39.49
2023-10-15T18:46:14.215Z,39.21
2023-10-15T18:48:44.304Z,38.93
2023-10-15T18:51:35.173Z,38.79
2023-10-15T18:54:00.530Z,39.19
2023-10-15T18:56:30.284Z,38.92
2023-10-15T18:59:04.393Z,38.48
2023-10-15T19:01:35.202Z,38.65
2023-10-15T19:04:07.817Z,38.86
2023-10-15T19:06:35.639Z,38.85
2023-10-15T19:09:05.645Z,38.78
2023-10-15T19:11:33.245Z,38.41
2023-10-15T19:14:05.883Z,38.61
2023-10-15T19:16:34.262Z,38.52
2023-10-15T19:19:04.772Z,38.35
2023-10-15T19:21:32.222Z,37.96
2023-10-15T19:23:59.748Z,38.02
2023-10-15T19:26:27.739Z,37.91
2023-10-15T19:28:57.580Z,38.05
2023-10-15T19:31:26.078Z,38.34
2023-10-15T19:33:53.612Z,38.14
2023-10-15T19:36:23.538Z,38.28
2023-10-15T19:38:53.417Z,38.42
2023-10-15T19:41:23.360Z,38.33
2023-10-15T19:43:50.715Z,38.09
2023-10-15T19:46:20.571Z,38.40
2023-10-15T19:48:47.992Z,38.18
2023-10-15T19:51:18.959Z,38.13
2023-10-15T19:53:49.075Z,38.00
2023-10-15T19:56:19.816Z,38.26
2023-10-15T19:58:49.549Z,37.89
2023-10-15T20:01:17.075Z,38.07
2023-10-15T20:04:02.763Z,38.03
2023-10-15T20:06:35.986Z,38.54
2023-10-15T20:09:13.247Z,38.54
2023-10-15T20:11:43.195Z,38.03
2023-10-15T20:14:15.247Z,38.41
2023-10-15T20:16:48.424Z,38.08
2023-10-15T20:19:15.762Z,38.53
2023-10-15T20:21:47.676Z,38.34
2023-10-15T20:24:17.807Z,37.97
2023-10-15T20:26:45.112Z,38.42
2023-10-15T20:29:12.435Z,38.61
2023-10-15T20:31:39.856Z,38.42
2023-10-15T20:34:10.185Z,38.39
2023-10-15T20:36:37.801Z,38.03
2023-10-15T20:39:11.148Z,38.01
2023-10-15T20:41:42.672Z,38.29
2023-10-15T20:44:15.768Z,38.00
2023-10-15T20:46:45.884Z,38.32
2023-10-15T20:49:17.385Z,38.18
2023-10-15T20:51:47.154Z,38.48
2023-10-15T20:54:17.605Z,37.93
2023-10-15T20:56:47.721Z,38.21
2023-10-15T20:59:17.766Z,38.06
2023-10-15T21:01:45.158Z,38.08
2023-10-15T21:04:12.589Z,38.33
2023-10-15T21:06:40.134Z,38.28
2023-10-15T21:09:07.642Z,38.23
2023-10-15T21:11:35.008Z,37.92
2023-10-15T21:14:04.568Z,37.71
2023-10-15T21:16:32.790Z,38.08
2023-10-15T21:19:00.160Z,37.92
2023-10-15T21:21:27.528Z,37.94
2023-10-15T21:23:55.704Z,37.58
2023-10-15T21:26:23.164Z,37.99
2023-10-15T21:28:53.293Z,37.38
2023-10-15T21:31:24.113Z,37.65
2023-10-15T21:33:53.852Z,37.67
2023-10-15T21:36:27.326Z,37.72
2023-10-15T21:38:57.107Z,37.27
2023-10-15T21:41:26.783Z,37.51
2023-10-15T21:43:54.318Z,37.84
2023-10-15T21:46:21.662Z,37.37
2023-10-15T21:48:53.696Z,37.75
2023-10-15T21:51:27.197Z,37.50
2023-10-15T21:53:54.551Z,37.68
2023-10-15T21:56:24.632Z,37.62
2023-10-15T21:58:55.463Z,37.68
2023-10-15T22:01:23.281Z,37.74
2023-10-15T22:03:52.999Z,37.58
2023-10-15T22:06:20.349Z,37.88
2023-10-15T22:08:47.983Z,37.43
2023-10-15T22:11:15.384Z,37.17
2023-10-15T22:13:59.974Z,37.46
2023-10-15T22:16:35.415Z,37.31
2023-10-15T22:19:08.522Z,37.22
2023-10-15T22:21:45.695Z,37.68
2023-10-15T22:24:21.028Z,37.36
2023-10-15T22:26:51.687Z,37.30
2023-10-15T22:29:30.964Z,37.44
2023-10-15T22:32:07.398Z,37.37
2023-10-15T22:34:37.198Z,37.92
2023-10-15T22:37:11.527Z,37.53
2023-10-15T22:39:41.316Z,37.81
2023-10-15T22:42:16.661Z,37.45
2023-10-15T22:44:48.956Z,37.49
2023-10-15T22:47:18.552Z,37.68
2023-10-15T22:49:48.659Z,37.54
2023-10-15T22:52:19.622Z,37.74
2023-10-15T22:54:52.787Z,37.60
2023-10-15T22:57:23.858Z,37.48
2023-10-15T22:59:51.981Z,37.29
2023-10-15T23:02:20.038Z,37.34
2023-10-15T23:04:50.417Z,37.61
2023-10-15T23:07:20.117Z,37.64
2023-10-15T23:09:50.329Z,37.49
2023-10-15T23:12:19.103Z,37.44
2023-10-15T23:14:51.607Z,37.31
2023-10-15T23:17:21.516Z,37.24
2023-10-15T23:19:50.669Z,37.09
2023-10-15T23:22:20.827Z,37.08
2023-10-15T23:24:49.033Z,37.13
2023-10-15T23:27:18.466Z,37.28
2023-10-15T23:29:53.081Z,37.37
2023-10-15T23:32:20.824Z,37.17
2023-10-15T23:34:53.550Z,37.20
2023-10-15T23:37:23.971Z,37.00
2023-10-15T23:39:54.197Z,37.51
2023-10-15T23:42:29.682Z,37.01
2023-10-15T23:45:07.401Z,36.91
2023-10-15T23:47:37.243Z,37.03
2023-10-15T23:50:15.733Z,37.12
2023-10-15T23:52:45.894Z,36.82
2023-10-15T23:55:19.538Z,37.12
2023-10-15T23:57:52.289Z,36.79
